11/6 a 18/6 - Breve vuelta al frío y luego nuevamente templado/cálido y húmedo C y N; nevadas Patagonia y Cordillera

Danywilde
Mensajes: 2613
Registrado: Mar Ene 24, 2012 1:41 pm
Ubicación: Wilde, Buenos Aires

Re: 11/6 a 18/6 - Breve vuelta al frío y luego nuevamente templado/cálido y húmedo C y N; nevadas Patagonia y Cordillera

Mensaje por Danywilde » Jue Jun 18, 2020 12:16 am

Empieza a llover con goterones fuertes en Wilde. Ráfagas y truenos lejanos.

Avatar de Usuario
Diecha
Mensajes: 12466
Registrado: Jue Ago 25, 2011 9:31 pm
Ubicación: Lomas de Zamora

Re: 11/6 a 18/6 - Breve vuelta al frío y luego nuevamente templado/cálido y húmedo C y N; nevadas Patagonia y Cordillera

Mensaje por Diecha » Jue Jun 18, 2020 12:18 am

- San Fernando 00 hs: SADF 180300Z 23010KT 1500 +TSRA FEW050CB OVC050 21/18 Q1002
- Aeroparque 00 hs: SABE 180300Z 26004KT 9999 TS FEW045CB OVC055 20/17 Q1001
- Ezeiza 00 hs: SAEZ 180300Z 23009KT 7000 TSRA BKN030 FEW045CB OVC050 18/16 Q1002

Imagen
Imagen

Avatar de Usuario
Ale de Castelar
Mensajes: 26853
Registrado: Sab Mar 03, 2012 12:25 pm
Ubicación: Caballito

Re: 11/6 a 18/6 - Breve vuelta al frío y luego nuevamente templado/cálido y húmedo C y N; nevadas Patagonia y Cordillera

Mensaje por Ale de Castelar » Jue Jun 18, 2020 12:19 am

Granizo chico algunos barrios del norte de capital

Avatar de Usuario
Porra
Mensajes: 4210
Registrado: Dom Jul 12, 2009 7:43 pm
Ubicación: Ciudad de Buenos Aires, Caballito

Re: 11/6 a 18/6 - Breve vuelta al frío y luego nuevamente templado/cálido y húmedo C y N; nevadas Patagonia y Cordillera

Mensaje por Porra » Jue Jun 18, 2020 12:19 am

Llueve, viento y act. eléctrica por Caballito. Todo fuerte pero nada muy destacable por ahora.
"Dios me odia" y "estaba relampagueando como un campeon" son frases registradas por Porra Inc. Derechos reservados para su uso y difusión.

Avatar de Usuario
MOTORHOMEMASTER
Mensajes: 4864
Registrado: Lun May 16, 2011 2:20 pm
Ubicación: Castelar o Hurlingham, Prov. Bs. As.

Re: 11/6 a 18/6 - Breve vuelta al frío y luego nuevamente templado/cálido y húmedo C y N; nevadas Patagonia y Cordillera

Mensaje por MOTORHOMEMASTER » Jue Jun 18, 2020 12:23 am

Luego de una linda lluvia fuerte unos 10 minutos, ya amaino. Actividad electrica al este de Castelar

Avatar de Usuario
Ale de Castelar
Mensajes: 26853
Registrado: Sab Mar 03, 2012 12:25 pm
Ubicación: Caballito

Re: 11/6 a 18/6 - Breve vuelta al frío y luego nuevamente templado/cálido y húmedo C y N; nevadas Patagonia y Cordillera

Mensaje por Ale de Castelar » Jue Jun 18, 2020 12:24 am

Bestial temporal en Boedo

Diluvio total con rafagas

Avatar de Usuario
Porra
Mensajes: 4210
Registrado: Dom Jul 12, 2009 7:43 pm
Ubicación: Ciudad de Buenos Aires, Caballito

Re: 11/6 a 18/6 - Breve vuelta al frío y luego nuevamente templado/cálido y húmedo C y N; nevadas Patagonia y Cordillera

Mensaje por Porra » Jue Jun 18, 2020 12:25 am

Después de escribir lo anterior se largó mucho mas fuerte, y ahora si es un diluvio y con ráfagas como indica Ale (igual en mi edificio siempre es con ráfagas, somos un gran generador de turbulencia).
"Dios me odia" y "estaba relampagueando como un campeon" son frases registradas por Porra Inc. Derechos reservados para su uso y difusión.

Avatar de Usuario
NicodWilde
Mensajes: 16776
Registrado: Mié Ago 01, 2012 7:34 pm
Ubicación: Wilde, Buenos Aires

Re: 11/6 a 18/6 - Breve vuelta al frío y luego nuevamente templado/cálido y húmedo C y N; nevadas Patagonia y Cordillera

Mensaje por NicodWilde » Jue Jun 18, 2020 12:26 am

Ahora sí se pone interesante la tormenta por acá.

Seguidilla de truenos y se larga a llover con ganas
No necesito que sea fácil, sólo que sea posible.

Nico

facurg
Mensajes: 37
Registrado: Lun Dic 30, 2019 6:24 pm

Re: 11/6 a 18/6 - Breve vuelta al frío y luego nuevamente templado/cálido y húmedo C y N; nevadas Patagonia y Cordillera

Mensaje por facurg » Jue Jun 18, 2020 12:26 am

Diluvio y granizo muy chico en Lanús

Stormy
Mensajes: 1314
Registrado: Vie Abr 07, 2017 5:19 pm
Ubicación: La Plata

Re: 11/6 a 18/6 - Breve vuelta al frío y luego nuevamente templado/cálido y húmedo C y N; nevadas Patagonia y Cordillera

Mensaje por Stormy » Jue Jun 18, 2020 12:28 am

Atenuación nivel dios en el radar Ezeiza :shock:
mateix escribió:pamperos que hacen disparar la T...
Marcelo escribió:Esa térmica es más trucha que cola de tornado.

Responder